sensor_id;sensor_type;location;lat;lon;timestamp;P1;durP1;ratioP1;P2;durP2;ratioP2
29202;SDS011;16245;51.170;4.884;2023-03-01T00:01:10;10.05;;;7.38;;
29202;SDS011;16245;51.170;4.884;2023-03-01T00:03:37;9.70;;;6.80;;
29202;SDS011;16245;51.170;4.884;2023-03-01T00:06:03;9.43;;;7.50;;
29202;SDS011;16245;51.170;4.884;2023-03-01T00:08:29;11.50;;;8.35;;
29202;SDS011;16245;51.170;4.884;2023-03-01T00:13:42;9.32;;;7.15;;
29202;SDS011;16245;51.170;4.884;2023-03-01T00:16:14;9.88;;;6.82;;
29202;SDS011;16245;51.170;4.884;2023-03-01T00:18:42;13.43;;;7.88;;
29202;SDS011;16245;51.170;4.884;2023-03-01T00:21:09;10.45;;;7.80;;
29202;SDS011;16245;51.170;4.884;2023-03-01T00:23:35;9.18;;;7.10;;
29202;SDS011;16245;51.170;4.884;2023-03-01T00:26:02;12.98;;;7.85;;
29202;SDS011;16245;51.170;4.884;2023-03-01T00:28:31;8.50;;;7.40;;
29202;SDS011;16245;51.170;4.884;2023-03-01T00:31:02;14.98;;;7.88;;
29202;SDS011;16245;51.170;4.884;2023-03-01T00:33:31;11.63;;;7.88;;
29202;SDS011;16245;51.170;4.884;2023-03-01T00:35:58;11.13;;;8.10;;
29202;SDS011;16245;51.170;4.884;2023-03-01T00:38:24;10.63;;;7.38;;
29202;SDS011;16245;51.170;4.884;2023-03-01T00:40:50;9.85;;;8.15;;
29202;SDS011;16245;51.170;4.884;2023-03-01T00:43:15;11.80;;;8.10;;
29202;SDS011;16245;51.170;4.884;2023-03-01T00:45:41;10.82;;;7.88;;
29202;SDS011;16245;51.170;4.884;2023-03-01T00:48:07;11.38;;;7.85;;
29202;SDS011;16245;51.170;4.884;2023-03-01T00:50:32;11.18;;;7.45;;
29202;SDS011;16245;51.170;4.884;2023-03-01T00:52:58;11.63;;;7.35;;
29202;SDS011;16245;51.170;4.884;2023-03-01T00:55:24;12.52;;;8.52;;
29202;SDS011;16245;51.170;4.884;2023-03-01T00:57:50;11.43;;;8.25;;
29202;SDS011;16245;51.170;4.884;2023-03-01T01:00:16;11.20;;;8.18;;
29202;SDS011;16245;51.170;4.884;2023-03-01T01:02:42;14.73;;;8.43;;
29202;SDS011;16245;51.170;4.884;2023-03-01T01:05:08;11.68;;;7.75;;
29202;SDS011;16245;51.170;4.884;2023-03-01T01:07:34;12.40;;;7.40;;
29202;SDS011;16245;51.170;4.884;2023-03-01T01:10:00;9.82;;;7.40;;
29202;SDS011;16245;51.170;4.884;2023-03-01T01:12:26;9.73;;;7.53;;
29202;SDS011;16245;51.170;4.884;2023-03-01T01:14:52;12.00;;;7.35;;
29202;SDS011;16245;51.170;4.884;2023-03-01T01:17:17;10.27;;;7.60;;
29202;SDS011;16245;51.170;4.884;2023-03-01T01:19:43;10.70;;;8.13;;
29202;SDS011;16245;51.170;4.884;2023-03-01T01:22:09;11.30;;;8.30;;
29202;SDS011;16245;51.170;4.884;2023-03-01T01:24:35;11.15;;;7.90;;
29202;SDS011;16245;51.170;4.884;2023-03-01T01:27:01;10.85;;;7.78;;
29202;SDS011;16245;51.170;4.884;2023-03-01T01:29:27;13.25;;;7.68;;
29202;SDS011;16245;51.170;4.884;2023-03-01T01:31:52;10.35;;;7.50;;
29202;SDS011;16245;51.170;4.884;2023-03-01T01:34:19;9.95;;;6.93;;
29202;SDS011;16245;51.170;4.884;2023-03-01T01:36:50;8.60;;;7.25;;
29202;SDS011;16245;51.170;4.884;2023-03-01T01:39:18;8.75;;;7.70;;
29202;SDS011;16245;51.170;4.884;2023-03-01T01:41:45;11.77;;;7.93;;
29202;SDS011;16245;51.170;4.884;2023-03-01T01:49:23;9.75;;;7.35;;
29202;SDS011;16245;51.170;4.884;2023-03-01T01:51:57;10.43;;;7.68;;
29202;SDS011;16245;51.170;4.884;2023-03-01T01:54:53;10.05;;;7.18;;
29202;SDS011;16245;51.170;4.884;2023-03-01T01:57:26;11.50;;;7.72;;
29202;SDS011;16245;51.170;4.884;2023-03-01T01:59:58;10.32;;;7.70;;
29202;SDS011;16245;51.170;4.884;2023-03-01T02:02:29;9.77;;;7.22;;
29202;SDS011;16245;51.170;4.884;2023-03-01T02:04:58;12.55;;;7.47;;
29202;SDS011;16245;51.170;4.884;2023-03-01T02:07:52;9.48;;;7.50;;
29202;SDS011;16245;51.170;4.884;2023-03-01T02:10:19;11.73;;;6.85;;
29202;SDS011;16245;51.170;4.884;2023-03-01T02:12:46;13.15;;;7.63;;
29202;SDS011;16245;51.170;4.884;2023-03-01T02:15:12;9.93;;;7.38;;
29202;SDS011;16245;51.170;4.884;2023-03-01T02:17:37;11.05;;;7.30;;
29202;SDS011;16245;51.170;4.884;2023-03-01T02:22:40;9.45;;;7.00;;
29202;SDS011;16245;51.170;4.884;2023-03-01T02:27:49;9.40;;;7.28;;
29202;SDS011;16245;51.170;4.884;2023-03-01T02:30:47;9.48;;;7.28;;
29202;SDS011;16245;51.170;4.884;2023-03-01T02:33:33;9.95;;;8.25;;
29202;SDS011;16245;51.170;4.884;2023-03-01T02:36:04;10.00;;;7.60;;
29202;SDS011;16245;51.170;4.884;2023-03-01T02:38:33;10.65;;;7.90;;
29202;SDS011;16245;51.170;4.884;2023-03-01T02:40:59;11.57;;;7.80;;
29202;SDS011;16245;51.170;4.884;2023-03-01T02:43:28;8.82;;;7.38;;
29202;SDS011;16245;51.170;4.884;2023-03-01T02:46:02;10.00;;;7.68;;
29202;SDS011;16245;51.170;4.884;2023-03-01T02:48:52;10.57;;;7.45;;
29202;SDS011;16245;51.170;4.884;2023-03-01T02:54:22;12.45;;;7.85;;
29202;SDS011;16245;51.170;4.884;2023-03-01T02:57:06;10.65;;;7.47;;
29202;SDS011;16245;51.170;4.884;2023-03-01T02:59:33;13.77;;;8.18;;
29202;SDS011;16245;51.170;4.884;2023-03-01T03:02:04;12.90;;;8.60;;
29202;SDS011;16245;51.170;4.884;2023-03-01T03:04:31;9.77;;;7.78;;
29202;SDS011;16245;51.170;4.884;2023-03-01T03:06:56;11.90;;;8.38;;
29202;SDS011;16245;51.170;4.884;2023-03-01T03:09:22;11.32;;;7.93;;
29202;SDS011;16245;51.170;4.884;2023-03-01T03:11:48;14.90;;;9.00;;
29202;SDS011;16245;51.170;4.884;2023-03-01T03:14:15;11.25;;;8.00;;
29202;SDS011;16245;51.170;4.884;2023-03-01T03:16:42;9.90;;;7.20;;
29202;SDS011;16245;51.170;4.884;2023-03-01T03:19:13;12.48;;;8.48;;
29202;SDS011;16245;51.170;4.884;2023-03-01T03:21:39;13.45;;;8.75;;
29202;SDS011;16245;51.170;4.884;2023-03-01T03:24:05;9.30;;;7.35;;
29202;SDS011;16245;51.170;4.884;2023-03-01T03:26:30;15.80;;;8.68;;
29202;SDS011;16245;51.170;4.884;2023-03-01T03:28:56;10.85;;;8.27;;
29202;SDS011;16245;51.170;4.884;2023-03-01T03:31:22;13.63;;;8.43;;
29202;SDS011;16245;51.170;4.884;2023-03-01T03:33:48;12.45;;;8.45;;
29202;SDS011;16245;51.170;4.884;2023-03-01T03:36:15;12.05;;;7.95;;
29202;SDS011;16245;51.170;4.884;2023-03-01T03:38:43;10.10;;;7.72;;
29202;SDS011;16245;51.170;4.884;2023-03-01T03:41:10;11.93;;;8.43;;
29202;SDS011;16245;51.170;4.884;2023-03-01T03:43:37;9.38;;;7.03;;
29202;SDS011;16245;51.170;4.884;2023-03-01T03:46:04;9.73;;;7.07;;
29202;SDS011;16245;51.170;4.884;2023-03-01T03:48:30;11.07;;;7.88;;
29202;SDS011;16245;51.170;4.884;2023-03-01T03:50:59;10.57;;;7.60;;
29202;SDS011;16245;51.170;4.884;2023-03-01T03:53:25;9.35;;;7.30;;
29202;SDS011;16245;51.170;4.884;2023-03-01T03:55:52;11.95;;;8.10;;
29202;SDS011;16245;51.170;4.884;2023-03-01T03:58:19;9.98;;;6.95;;
29202;SDS011;16245;51.170;4.884;2023-03-01T04:00:51;12.25;;;8.00;;
29202;SDS011;16245;51.170;4.884;2023-03-01T04:03:18;8.73;;;6.70;;
29202;SDS011;16245;51.170;4.884;2023-03-01T04:05:45;9.43;;;7.25;;
29202;SDS011;16245;51.170;4.884;2023-03-01T04:08:12;12.65;;;7.82;;
29202;SDS011;16245;51.170;4.884;2023-03-01T04:10:43;8.70;;;7.68;;
29202;SDS011;16245;51.170;4.884;2023-03-01T04:13:12;10.77;;;7.60;;
29202;SDS011;16245;51.170;4.884;2023-03-01T04:15:39;12.40;;;8.23;;
29202;SDS011;16245;51.170;4.884;2023-03-01T04:18:05;11.27;;;7.88;;
29202;SDS011;16245;51.170;4.884;2023-03-01T04:20:32;12.73;;;8.48;;
29202;SDS011;16245;51.170;4.884;2023-03-01T04:23:07;10.63;;;7.72;;
29202;SDS011;16245;51.170;4.884;2023-03-01T04:25:48;10.63;;;7.60;;
29202;SDS011;16245;51.170;4.884;2023-03-01T04:28:19;10.77;;;8.70;;
29202;SDS011;16245;51.170;4.884;2023-03-01T04:30:51;10.60;;;7.22;;
29202;SDS011;16245;51.170;4.884;2023-03-01T04:33:17;10.43;;;7.47;;
29202;SDS011;16245;51.170;4.884;2023-03-01T04:35:43;10.45;;;7.97;;
29202;SDS011;16245;51.170;4.884;2023-03-01T04:38:09;11.07;;;7.90;;
29202;SDS011;16245;51.170;4.884;2023-03-01T04:40:35;13.43;;;7.43;;
29202;SDS011;16245;51.170;4.884;2023-03-01T04:43:02;13.40;;;8.13;;
29202;SDS011;16245;51.170;4.884;2023-03-01T04:45:28;12.85;;;7.88;;
29202;SDS011;16245;51.170;4.884;2023-03-01T04:47:54;15.20;;;7.60;;
29202;SDS011;16245;51.170;4.884;2023-03-01T04:50:23;12.32;;;8.32;;
29202;SDS011;16245;51.170;4.884;2023-03-01T04:52:50;10.38;;;7.28;;
29202;SDS011;16245;51.170;4.884;2023-03-01T04:55:16;11.07;;;7.65;;
29202;SDS011;16245;51.170;4.884;2023-03-01T04:57:41;11.73;;;7.50;;
29202;SDS011;16245;51.170;4.884;2023-03-01T05:00:09;9.45;;;7.22;;
29202;SDS011;16245;51.170;4.884;2023-03-01T05:02:55;11.65;;;7.53;;
29202;SDS011;16245;51.170;4.884;2023-03-01T05:07:56;9.27;;;7.45;;
29202;SDS011;16245;51.170;4.884;2023-03-01T05:10:23;10.05;;;6.95;;
29202;SDS011;16245;51.170;4.884;2023-03-01T05:12:50;9.80;;;6.68;;
29202;SDS011;16245;51.170;4.884;2023-03-01T05:15:17;11.70;;;7.43;;
29202;SDS011;16245;51.170;4.884;2023-03-01T05:17:43;9.38;;;6.68;;
29202;SDS011;16245;51.170;4.884;2023-03-01T05:20:09;8.73;;;6.97;;
29202;SDS011;16245;51.170;4.884;2023-03-01T05:22:35;11.68;;;7.82;;
29202;SDS011;16245;51.170;4.884;2023-03-01T05:25:01;10.70;;;6.75;;
29202;SDS011;16245;51.170;4.884;2023-03-01T05:27:28;10.38;;;7.50;;
29202;SDS011;16245;51.170;4.884;2023-03-01T05:29:54;9.07;;;6.90;;
29202;SDS011;16245;51.170;4.884;2023-03-01T05:32:20;8.93;;;6.40;;
29202;SDS011;16245;51.170;4.884;2023-03-01T05:34:46;9.23;;;6.60;;
29202;SDS011;16245;51.170;4.884;2023-03-01T05:37:12;9.20;;;6.68;;
29202;SDS011;16245;51.170;4.884;2023-03-01T05:39:38;12.77;;;7.78;;
29202;SDS011;16245;51.170;4.884;2023-03-01T05:42:04;10.73;;;7.72;;
29202;SDS011;16245;51.170;4.884;2023-03-01T05:44:30;8.30;;;6.60;;
29202;SDS011;16245;51.170;4.884;2023-03-01T05:46:56;14.57;;;7.95;;
29202;SDS011;16245;51.170;4.884;2023-03-01T05:49:22;15.02;;;8.55;;
29202;SDS011;16245;51.170;4.884;2023-03-01T05:51:49;8.85;;;7.82;;
29202;SDS011;16245;51.170;4.884;2023-03-01T05:54:17;10.98;;;7.97;;
29202;SDS011;16245;51.170;4.884;2023-03-01T05:56:43;10.82;;;7.70;;
29202;SDS011;16245;51.170;4.884;2023-03-01T05:59:10;8.88;;;6.35;;
29202;SDS011;16245;51.170;4.884;2023-03-01T06:01:36;12.48;;;7.88;;
29202;SDS011;16245;51.170;4.884;2023-03-01T06:04:02;7.95;;;6.68;;
29202;SDS011;16245;51.170;4.884;2023-03-01T06:06:29;10.88;;;6.65;;
29202;SDS011;16245;51.170;4.884;2023-03-01T06:08:58;11.38;;;7.05;;
29202;SDS011;16245;51.170;4.884;2023-03-01T06:11:23;9.25;;;6.95;;
29202;SDS011;16245;51.170;4.884;2023-03-01T06:13:49;10.02;;;7.28;;
29202;SDS011;16245;51.170;4.884;2023-03-01T06:16:15;10.25;;;7.28;;
29202;SDS011;16245;51.170;4.884;2023-03-01T06:18:41;9.73;;;7.10;;
29202;SDS011;16245;51.170;4.884;2023-03-01T06:21:07;7.28;;;6.35;;
29202;SDS011;16245;51.170;4.884;2023-03-01T06:23:34;7.90;;;5.90;;
29202;SDS011;16245;51.170;4.884;2023-03-01T06:26:00;11.05;;;7.68;;
29202;SDS011;16245;51.170;4.884;2023-03-01T06:28:29;11.25;;;7.45;;
29202;SDS011;16245;51.170;4.884;2023-03-01T06:30:55;12.25;;;6.95;;
29202;SDS011;16245;51.170;4.884;2023-03-01T06:33:21;9.85;;;6.57;;
29202;SDS011;16245;51.170;4.884;2023-03-01T06:35:49;12.23;;;6.68;;
29202;SDS011;16245;51.170;4.884;2023-03-01T06:38:15;8.73;;;6.25;;
29202;SDS011;16245;51.170;4.884;2023-03-01T06:40:42;10.73;;;6.85;;
29202;SDS011;16245;51.170;4.884;2023-03-01T06:43:07;11.73;;;6.78;;
29202;SDS011;16245;51.170;4.884;2023-03-01T06:45:33;14.30;;;6.90;;
29202;SDS011;16245;51.170;4.884;2023-03-01T06:48:05;10.43;;;6.68;;
29202;SDS011;16245;51.170;4.884;2023-03-01T06:50:32;12.65;;;7.30;;
29202;SDS011;16245;51.170;4.884;2023-03-01T06:52:59;10.32;;;7.07;;
29202;SDS011;16245;51.170;4.884;2023-03-01T06:55:25;10.07;;;7.28;;
29202;SDS011;16245;51.170;4.884;2023-03-01T06:57:57;10.95;;;7.47;;
29202;SDS011;16245;51.170;4.884;2023-03-01T07:00:24;9.23;;;6.97;;
29202;SDS011;16245;51.170;4.884;2023-03-01T07:02:50;9.27;;;7.43;;
29202;SDS011;16245;51.170;4.884;2023-03-01T07:05:15;9.93;;;6.93;;
29202;SDS011;16245;51.170;4.884;2023-03-01T07:07:41;12.32;;;7.40;;
29202;SDS011;16245;51.170;4.884;2023-03-01T07:10:07;9.25;;;6.75;;
29202;SDS011;16245;51.170;4.884;2023-03-01T07:12:33;11.82;;;7.55;;
29202;SDS011;16245;51.170;4.884;2023-03-01T07:14:59;15.65;;;8.05;;
29202;SDS011;16245;51.170;4.884;2023-03-01T07:17:25;10.75;;;7.38;;
29202;SDS011;16245;51.170;4.884;2023-03-01T07:19:50;12.65;;;8.40;;
29202;SDS011;16245;51.170;4.884;2023-03-01T07:22:16;11.07;;;8.32;;
29202;SDS011;16245;51.170;4.884;2023-03-01T07:24:42;14.65;;;8.73;;
29202;SDS011;16245;51.170;4.884;2023-03-01T07:27:08;13.63;;;8.60;;
29202;SDS011;16245;51.170;4.884;2023-03-01T07:29:34;10.57;;;8.27;;
29202;SDS011;16245;51.170;4.884;2023-03-01T07:32:01;13.27;;;8.15;;
29202;SDS011;16245;51.170;4.884;2023-03-01T07:34:27;14.43;;;8.52;;
29202;SDS011;16245;51.170;4.884;2023-03-01T07:36:53;11.82;;;7.93;;
29202;SDS011;16245;51.170;4.884;2023-03-01T07:39:19;10.48;;;7.93;;
29202;SDS011;16245;51.170;4.884;2023-03-01T07:41:44;11.85;;;8.15;;
29202;SDS011;16245;51.170;4.884;2023-03-01T07:44:10;10.65;;;7.68;;
29202;SDS011;16245;51.170;4.884;2023-03-01T07:46:36;10.65;;;7.88;;
29202;SDS011;16245;51.170;4.884;2023-03-01T07:49:01;10.90;;;7.47;;
29202;SDS011;16245;51.170;4.884;2023-03-01T07:51:27;11.20;;;7.45;;
29202;SDS011;16245;51.170;4.884;2023-03-01T07:53:53;12.52;;;6.93;;
29202;SDS011;16245;51.170;4.884;2023-03-01T07:56:19;9.57;;;7.03;;
29202;SDS011;16245;51.170;4.884;2023-03-01T07:58:46;9.95;;;6.53;;
29202;SDS011;16245;51.170;4.884;2023-03-01T08:01:13;9.57;;;6.38;;
29202;SDS011;16245;51.170;4.884;2023-03-01T08:03:41;7.85;;;6.63;;
29202;SDS011;16245;51.170;4.884;2023-03-01T08:06:09;9.90;;;6.72;;
29202;SDS011;16245;51.170;4.884;2023-03-01T08:08:35;7.40;;;6.53;;
29202;SDS011;16245;51.170;4.884;2023-03-01T08:11:02;9.38;;;6.15;;
29202;SDS011;16245;51.170;4.884;2023-03-01T08:13:29;8.07;;;6.93;;
29202;SDS011;16245;51.170;4.884;2023-03-01T08:16:00;9.73;;;7.18;;
29202;SDS011;16245;51.170;4.884;2023-03-01T08:18:34;8.43;;;7.03;;
29202;SDS011;16245;51.170;4.884;2023-03-01T08:21:01;8.65;;;7.20;;
29202;SDS011;16245;51.170;4.884;2023-03-01T08:23:30;8.45;;;6.85;;
29202;SDS011;16245;51.170;4.884;2023-03-01T08:26:02;10.65;;;7.40;;
29202;SDS011;16245;51.170;4.884;2023-03-01T08:28:43;9.70;;;7.60;;
29202;SDS011;16245;51.170;4.884;2023-03-01T08:31:19;11.85;;;7.30;;
29202;SDS011;16245;51.170;4.884;2023-03-01T08:33:47;8.20;;;6.97;;
29202;SDS011;16245;51.170;4.884;2023-03-01T08:36:20;7.82;;;7.10;;
29202;SDS011;16245;51.170;4.884;2023-03-01T08:38:47;7.68;;;6.75;;
29202;SDS011;16245;51.170;4.884;2023-03-01T08:41:13;8.18;;;7.38;;
29202;SDS011;16245;51.170;4.884;2023-03-01T08:43:40;7.60;;;6.78;;
29202;SDS011;16245;51.170;4.884;2023-03-01T08:46:06;9.15;;;7.35;;
29202;SDS011;16245;51.170;4.884;2023-03-01T08:48:32;9.40;;;6.57;;
29202;SDS011;16245;51.170;4.884;2023-03-01T08:51:06;7.53;;;6.72;;
29202;SDS011;16245;51.170;4.884;2023-03-01T08:53:33;9.88;;;7.50;;
29202;SDS011;16245;51.170;4.884;2023-03-01T08:56:02;10.00;;;7.13;;
29202;SDS011;16245;51.170;4.884;2023-03-01T08:58:28;8.75;;;6.70;;
29202;SDS011;16245;51.170;4.884;2023-03-01T09:00:54;8.88;;;6.95;;
29202;SDS011;16245;51.170;4.884;2023-03-01T09:03:21;8.32;;;6.97;;
29202;SDS011;16245;51.170;4.884;2023-03-01T09:05:47;7.78;;;6.85;;
29202;SDS011;16245;51.170;4.884;2023-03-01T09:08:15;7.60;;;6.90;;
29202;SDS011;16245;51.170;4.884;2023-03-01T09:10:44;7.53;;;6.75;;
29202;SDS011;16245;51.170;4.884;2023-03-01T09:13:09;9.93;;;7.15;;
29202;SDS011;16245;51.170;4.884;2023-03-01T09:15:38;9.73;;;7.30;;
29202;SDS011;16245;51.170;4.884;2023-03-01T09:18:04;8.32;;;7.45;;
29202;SDS011;16245;51.170;4.884;2023-03-01T09:20:31;8.38;;;7.10;;
29202;SDS011;16245;51.170;4.884;2023-03-01T09:22:57;7.50;;;6.80;;
29202;SDS011;16245;51.170;4.884;2023-03-01T09:25:23;9.25;;;7.28;;
29202;SDS011;16245;51.170;4.884;2023-03-01T09:27:52;8.63;;;7.57;;
29202;SDS011;16245;51.170;4.884;2023-03-01T09:30:18;8.65;;;6.90;;
29202;SDS011;16245;51.170;4.884;2023-03-01T09:32:45;9.77;;;7.60;;
29202;SDS011;16245;51.170;4.884;2023-03-01T09:35:11;8.73;;;6.35;;
29202;SDS011;16245;51.170;4.884;2023-03-01T09:37:37;7.20;;;6.53;;
29202;SDS011;16245;51.170;4.884;2023-03-01T09:40:03;8.70;;;7.28;;
29202;SDS011;16245;51.170;4.884;2023-03-01T09:42:34;8.88;;;7.18;;
29202;SDS011;16245;51.170;4.884;2023-03-01T09:45:03;10.98;;;7.20;;
29202;SDS011;16245;51.170;4.884;2023-03-01T09:47:31;8.80;;;6.75;;
29202;SDS011;16245;51.170;4.884;2023-03-01T09:50:09;9.45;;;7.00;;
29202;SDS011;16245;51.170;4.884;2023-03-01T09:53:00;9.48;;;7.53;;
29202;SDS011;16245;51.170;4.884;2023-03-01T09:55:39;8.90;;;7.80;;
29202;SDS011;16245;51.170;4.884;2023-03-01T10:01:48;7.90;;;6.97;;
29202;SDS011;16245;51.170;4.884;2023-03-01T10:09:33;9.73;;;7.75;;
29202;SDS011;16245;51.170;4.884;2023-03-01T10:12:00;10.02;;;7.75;;
29202;SDS011;16245;51.170;4.884;2023-03-01T10:14:34;8.77;;;7.88;;
29202;SDS011;16245;51.170;4.884;2023-03-01T10:17:04;9.07;;;7.63;;
29202;SDS011;16245;51.170;4.884;2023-03-01T10:19:49;9.82;;;8.02;;
29202;SDS011;16245;51.170;4.884;2023-03-01T10:22:18;11.35;;;7.85;;
29202;SDS011;16245;51.170;4.884;2023-03-01T10:24:46;8.68;;;7.47;;
29202;SDS011;16245;51.170;4.884;2023-03-01T10:27:21;8.82;;;7.88;;
29202;SDS011;16245;51.170;4.884;2023-03-01T10:30:01;10.35;;;8.10;;
29202;SDS011;16245;51.170;4.884;2023-03-01T10:32:28;9.40;;;8.02;;
29202;SDS011;16245;51.170;4.884;2023-03-01T10:34:54;9.20;;;7.47;;
29202;SDS011;16245;51.170;4.884;2023-03-01T10:37:20;10.73;;;8.52;;
29202;SDS011;16245;51.170;4.884;2023-03-01T10:40:03;9.80;;;8.80;;
29202;SDS011;16245;51.170;4.884;2023-03-01T10:42:46;9.25;;;8.18;;
29202;SDS011;16245;51.170;4.884;2023-03-01T10:45:35;9.18;;;7.85;;
29202;SDS011;16245;51.170;4.884;2023-03-01T10:50:43;9.07;;;8.15;;
29202;SDS011;16245;51.170;4.884;2023-03-01T10:53:24;9.73;;;8.52;;
29202;SDS011;16245;51.170;4.884;2023-03-01T10:58:28;9.85;;;8.57;;
29202;SDS011;16245;51.170;4.884;2023-03-01T11:00:56;10.75;;;8.40;;
29202;SDS011;16245;51.170;4.884;2023-03-01T11:03:33;12.05;;;8.70;;
29202;SDS011;16245;51.170;4.884;2023-03-01T11:06:04;12.10;;;9.10;;
29202;SDS011;16245;51.170;4.884;2023-03-01T11:08:47;11.45;;;9.70;;
29202;SDS011;16245;51.170;4.884;2023-03-01T11:11:17;10.50;;;9.27;;
29202;SDS011;16245;51.170;4.884;2023-03-01T11:16:40;10.48;;;8.57;;
29202;SDS011;16245;51.170;4.884;2023-03-01T11:21:36;11.23;;;8.63;;
29202;SDS011;16245;51.170;4.884;2023-03-01T11:24:35;11.32;;;8.68;;
29202;SDS011;16245;51.170;4.884;2023-03-01T11:27:27;10.52;;;8.57;;
29202;SDS011;16245;51.170;4.884;2023-03-01T11:30:00;13.85;;;9.15;;
29202;SDS011;16245;51.170;4.884;2023-03-01T11:32:31;11.15;;;7.93;;
29202;SDS011;16245;51.170;4.884;2023-03-01T11:40:10;13.90;;;8.93;;
29202;SDS011;16245;51.170;4.884;2023-03-01T11:42:48;11.43;;;9.20;;
29202;SDS011;16245;51.170;4.884;2023-03-01T11:45:29;11.48;;;8.75;;
29202;SDS011;16245;51.170;4.884;2023-03-01T11:48:15;11.75;;;8.80;;
29202;SDS011;16245;51.170;4.884;2023-03-01T11:50:54;11.18;;;8.90;;
29202;SDS011;16245;51.170;4.884;2023-03-01T11:53:29;11.13;;;9.18;;
29202;SDS011;16245;51.170;4.884;2023-03-01T11:59:06;10.02;;;8.27;;
29202;SDS011;16245;51.170;4.884;2023-03-01T12:01:48;11.27;;;8.45;;
29202;SDS011;16245;51.170;4.884;2023-03-01T12:04:32;15.45;;;9.45;;
29202;SDS011;16245;51.170;4.884;2023-03-01T12:07:00;12.90;;;9.25;;
29202;SDS011;16245;51.170;4.884;2023-03-01T12:25:55;10.63;;;8.95;;
29202;SDS011;16245;51.170;4.884;2023-03-01T12:36:51;11.52;;;9.25;;
29202;SDS011;16245;51.170;4.884;2023-03-01T12:39:31;15.35;;;9.48;;
29202;SDS011;16245;51.170;4.884;2023-03-01T12:42:23;11.77;;;9.27;;
29202;SDS011;16245;51.170;4.884;2023-03-01T12:50:42;10.48;;;8.68;;
29202;SDS011;16245;51.170;4.884;2023-03-01T12:56:05;14.30;;;8.98;;
29202;SDS011;16245;51.170;4.884;2023-03-01T13:18:00;12.77;;;8.90;;
29202;SDS011;16245;51.170;4.884;2023-03-01T13:20:52;13.32;;;9.27;;
29202;SDS011;16245;51.170;4.884;2023-03-01T13:31:02;11.10;;;9.13;;
29202;SDS011;16245;51.170;4.884;2023-03-01T13:35:55;11.40;;;9.05;;
29202;SDS011;16245;51.170;4.884;2023-03-01T13:41:16;13.18;;;8.73;;
29202;SDS011;16245;51.170;4.884;2023-03-01T13:44:11;13.98;;;9.60;;
29202;SDS011;16245;51.170;4.884;2023-03-01T13:46:37;15.15;;;8.77;;
29202;SDS011;16245;51.170;4.884;2023-03-01T13:49:03;13.32;;;8.82;;
29202;SDS011;16245;51.170;4.884;2023-03-01T13:51:29;14.95;;;9.52;;
29202;SDS011;16245;51.170;4.884;2023-03-01T13:53:55;12.65;;;9.55;;
29202;SDS011;16245;51.170;4.884;2023-03-01T13:56:26;11.95;;;9.88;;
29202;SDS011;16245;51.170;4.884;2023-03-01T13:59:12;15.95;;;9.55;;
29202;SDS011;16245;51.170;4.884;2023-03-01T14:01:40;12.63;;;9.13;;
29202;SDS011;16245;51.170;4.884;2023-03-01T14:07:08;15.15;;;9.85;;
29202;SDS011;16245;51.170;4.884;2023-03-01T14:09:39;11.18;;;9.48;;
29202;SDS011;16245;51.170;4.884;2023-03-01T14:18:14;12.43;;;8.93;;
29202;SDS011;16245;51.170;4.884;2023-03-01T14:20:46;12.52;;;9.32;;
29202;SDS011;16245;51.170;4.884;2023-03-01T14:23:17;10.15;;;8.23;;
29202;SDS011;16245;51.170;4.884;2023-03-01T14:25:49;12.98;;;8.45;;
29202;SDS011;16245;51.170;4.884;2023-03-01T14:28:17;15.65;;;9.13;;
29202;SDS011;16245;51.170;4.884;2023-03-01T14:30:53;12.75;;;8.73;;
29202;SDS011;16245;51.170;4.884;2023-03-01T14:33:36;10.98;;;8.10;;
29202;SDS011;16245;51.170;4.884;2023-03-01T14:38:36;10.82;;;7.25;;
29202;SDS011;16245;51.170;4.884;2023-03-01T14:41:07;9.52;;;7.72;;
29202;SDS011;16245;51.170;4.884;2023-03-01T14:43:35;9.80;;;8.05;;
29202;SDS011;16245;51.170;4.884;2023-03-01T14:46:16;10.85;;;7.28;;
29202;SDS011;16245;51.170;4.884;2023-03-01T14:48:51;9.65;;;7.00;;
29202;SDS011;16245;51.170;4.884;2023-03-01T14:51:19;11.68;;;7.22;;
29202;SDS011;16245;51.170;4.884;2023-03-01T14:53:48;10.18;;;6.07;;
29202;SDS011;16245;51.170;4.884;2023-03-01T14:56:15;12.50;;;7.35;;
29202;SDS011;16245;51.170;4.884;2023-03-01T14:58:42;12.70;;;7.20;;
29202;SDS011;16245;51.170;4.884;2023-03-01T15:01:10;12.68;;;7.03;;
29202;SDS011;16245;51.170;4.884;2023-03-01T15:03:42;10.88;;;7.10;;
29202;SDS011;16245;51.170;4.884;2023-03-01T15:06:16;8.48;;;6.60;;
29202;SDS011;16245;51.170;4.884;2023-03-01T15:08:48;10.15;;;6.82;;
29202;SDS011;16245;51.170;4.884;2023-03-01T15:11:23;7.80;;;6.35;;
29202;SDS011;16245;51.170;4.884;2023-03-01T15:13:54;11.50;;;7.78;;
29202;SDS011;16245;51.170;4.884;2023-03-01T15:16:27;8.95;;;7.05;;
29202;SDS011;16245;51.170;4.884;2023-03-01T15:19:05;11.48;;;6.80;;
29202;SDS011;16245;51.170;4.884;2023-03-01T15:21:33;8.05;;;6.38;;
29202;SDS011;16245;51.170;4.884;2023-03-01T15:24:07;9.02;;;6.97;;
29202;SDS011;16245;51.170;4.884;2023-03-01T15:26:40;8.93;;;6.78;;
29202;SDS011;16245;51.170;4.884;2023-03-01T15:29:11;7.88;;;6.68;;
29202;SDS011;16245;51.170;4.884;2023-03-01T15:31:53;9.50;;;7.30;;
29202;SDS011;16245;51.170;4.884;2023-03-01T15:34:38;10.68;;;6.78;;
29202;SDS011;16245;51.170;4.884;2023-03-01T15:37:05;18.92;;;8.23;;
29202;SDS011;16245;51.170;4.884;2023-03-01T15:39:56;8.27;;;6.97;;
29202;SDS011;16245;51.170;4.884;2023-03-01T15:45:36;8.88;;;6.68;;
29202;SDS011;16245;51.170;4.884;2023-03-01T15:47:51;6.85;;;6.15;;
29202;SDS011;16245;51.170;4.884;2023-03-01T15:50:26;10.68;;;6.78;;
29202;SDS011;16245;51.170;4.884;2023-03-01T15:52:53;8.38;;;6.85;;
29202;SDS011;16245;51.170;4.884;2023-03-01T15:55:27;9.07;;;6.13;;
29202;SDS011;16245;51.170;4.884;2023-03-01T16:00:59;8.15;;;6.40;;
29202;SDS011;16245;51.170;4.884;2023-03-01T16:03:24;8.38;;;6.82;;
29202;SDS011;16245;51.170;4.884;2023-03-01T16:05:50;10.88;;;6.40;;
29202;SDS011;16245;51.170;4.884;2023-03-01T16:08:17;8.23;;;5.90;;
29202;SDS011;16245;51.170;4.884;2023-03-01T16:10:43;7.68;;;6.40;;
29202;SDS011;16245;51.170;4.884;2023-03-01T16:13:10;9.50;;;7.28;;
29202;SDS011;16245;51.170;4.884;2023-03-01T16:15:39;11.20;;;6.47;;
29202;SDS011;16245;51.170;4.884;2023-03-01T16:18:05;9.98;;;6.68;;
29202;SDS011;16245;51.170;4.884;2023-03-01T16:20:32;12.05;;;6.63;;
29202;SDS011;16245;51.170;4.884;2023-03-01T16:23:00;8.48;;;6.70;;
29202;SDS011;16245;51.170;4.884;2023-03-01T16:25:27;13.10;;;7.60;;
29202;SDS011;16245;51.170;4.884;2023-03-01T16:27:53;11.15;;;7.07;;
29202;SDS011;16245;51.170;4.884;2023-03-01T16:30:21;9.35;;;7.13;;
29202;SDS011;16245;51.170;4.884;2023-03-01T16:32:48;9.77;;;6.68;;
29202;SDS011;16245;51.170;4.884;2023-03-01T16:35:15;7.88;;;6.95;;
29202;SDS011;16245;51.170;4.884;2023-03-01T16:37:42;11.43;;;6.93;;
29202;SDS011;16245;51.170;4.884;2023-03-01T16:40:21;9.23;;;7.13;;
29202;SDS011;16245;51.170;4.884;2023-03-01T16:42:49;9.23;;;7.10;;
29202;SDS011;16245;51.170;4.884;2023-03-01T16:45:15;7.97;;;6.60;;
29202;SDS011;16245;51.170;4.884;2023-03-01T16:47:41;9.02;;;6.75;;
29202;SDS011;16245;51.170;4.884;2023-03-01T16:50:07;10.85;;;7.65;;
29202;SDS011;16245;51.170;4.884;2023-03-01T16:52:33;9.93;;;7.47;;
29202;SDS011;16245;51.170;4.884;2023-03-01T16:54:59;9.63;;;7.15;;
29202;SDS011;16245;51.170;4.884;2023-03-01T16:57:25;13.82;;;7.95;;
29202;SDS011;16245;51.170;4.884;2023-03-01T16:59:54;11.63;;;7.53;;
29202;SDS011;16245;51.170;4.884;2023-03-01T17:02:19;11.13;;;7.68;;
29202;SDS011;16245;51.170;4.884;2023-03-01T17:04:51;11.05;;;7.32;;